Time;durP1;ratioP1;P1;durP2;ratioP2;P2;SDS_P1;SDS_P2;PMS_P1;PMS_P2;Temp;Humidity;BMP_temperature;BMP_pressure;BME280_temperature;BME280_humidity;BME280_pressure;Samples;Min_cycle;Max_cycle;Signal;HPM_P1;HPM_P2
2022/09/19 00:01:18;;;;;;;13.52;12.82;;;;;;;10.32;100.00;100090.97;5052571;28;20032;-67
2022/09/19 00:03:46;;;;;;;14.23;13.43;;;;;;;10.35;100.00;100093.25;5051592;28;20036;-68
2022/09/19 00:06:14;;;;;;;13.60;12.90;;;;;;;10.34;100.00;100093.44;5052591;28;20392;-68
2022/09/19 00:08:42;;;;;;;14.27;13.48;;;;;;;10.37;100.00;100091.25;5052351;28;20036;-68
2022/09/19 00:11:10;;;;;;;14.30;13.50;;;;;;;10.29;100.00;100093.19;5052388;28;20038;-68
2022/09/19 00:13:41;;;;;;;13.32;12.63;;;;;;;10.40;100.00;100087.41;5050904;28;20032;-68
2022/09/19 00:16:07;;;;;;;14.57;13.77;;;;;;;10.27;100.00;100090.69;5040887;28;20048;-68
2022/09/19 00:18:32;;;;;;;14.32;13.52;;;;;;;10.28;100.00;100086.22;5052659;28;20020;-68
2022/09/19 00:21:00;;;;;;;14.35;13.55;;;;;;;10.36;100.00;100089.63;5051178;28;20392;-67
2022/09/19 00:26:11;;;;;;;;;;;;;;;10.24;100.00;100099.84;5041267;28;20032;-68
2022/09/19 00:28:38;;;;;;;13.63;12.93;;;;;;;10.33;100.00;100102.41;5051127;28;19918;-68
2022/09/19 00:31:04;;;;;;;13.75;13.05;;;;;;;10.18;100.00;100105.84;5050894;28;20431;-68
2022/09/19 00:33:31;;;;;;;13.65;12.95;;;;;;;10.08;100.00;100104.47;5050221;28;20488;-67
2022/09/19 00:35:58;;;;;;;13.77;13.02;;;;;;;10.11;100.00;100104.94;5045597;28;20028;-69
2022/09/19 00:38:27;;;;;;;13.55;12.85;;;;;;;10.07;100.00;100108.97;5050821;28;20036;-69
2022/09/19 00:40:52;;;;;;;13.27;12.57;;;;;;;10.13;100.00;100102.09;5049751;28;20037;-69
2022/09/19 00:43:20;;;;;;;13.20;12.50;;;;;;;10.10;100.00;100108.59;5050114;28;20040;-67
2022/09/19 00:45:46;;;;;;;13.40;12.70;;;;;;;10.11;100.00;100106.75;5051974;28;20027;-68
2022/09/19 00:48:16;;;;;;;13.35;12.65;;;;;;;10.07;100.00;100108.97;5051918;28;20358;-68
2022/09/19 00:50:46;;;;;;;13.60;12.90;;;;;;;9.90;100.00;100100.31;5051191;28;20055;-68
2022/09/19 00:53:17;;;;;;;13.30;12.60;;;;;;;10.02;100.00;100121.91;5046411;28;20060;-68
2022/09/19 00:55:44;;;;;;;13.48;12.77;;;;;;;10.00;100.00;100120.47;5074532;28;20032;-67
2022/09/19 00:58:24;;;;;;;15.05;14.15;;;;;;;9.96;100.00;100117.34;5051654;28;20033;-68
2022/09/19 01:00:50;;;;;;;13.15;12.48;;;;;;;9.86;100.00;100111.50;5047338;28;20025;-68
2022/09/19 01:03:16;;;;;;;13.45;12.75;;;;;;;9.67;100.00;100112.81;5041402;28;20028;-68
2022/09/19 01:06:09;;;;;;;14.05;13.25;;;;;;;9.51;100.00;100111.13;5050152;28;20024;-69
2022/09/19 01:08:52;;;;;;;14.00;13.30;;;;;;;9.63;100.00;100112.34;5040918;28;20072;-68
2022/09/19 01:11:42;;;;;;;14.57;13.77;;;;;;;9.66;100.00;100111.97;5050667;28;20036;-68
2022/09/19 01:14:26;;;;;;;14.43;13.63;;;;;;;9.54;100.00;100107.28;5040758;28;20471;-68
2022/09/19 01:17:19;;;;;;;14.73;13.93;;;;;;;9.41;100.00;100105.25;5061476;28;20021;-68
2022/09/19 01:19:59;;;;;;;15.98;15.02;;;;;;;9.41;100.00;100103.44;5046212;28;20029;-68
2022/09/19 01:22:34;;;;;;;15.00;14.18;;;;;;;9.43;100.00;100105.88;5041109;28;20027;-67
2022/09/19 01:25:10;;;;;;;14.70;13.90;;;;;;;9.47;100.00;100111.63;5039443;28;20048;-67
2022/09/19 01:28:11;;;;;;;14.20;13.50;;;;;;;9.57;100.00;100118.34;5050638;28;20094;-67
2022/09/19 01:30:42;;;;;;;14.85;14.05;;;;;;;9.56;100.00;100115.91;5048891;28;20025;-68
2022/09/19 01:33:17;;;;;;;14.85;14.05;;;;;;;9.47;100.00;100111.63;5046381;28;20029;-68
2022/09/19 01:35:50;;;;;;;13.73;13.02;;;;;;;9.19;100.00;100108.72;5051503;28;20120;-67
2022/09/19 01:38:26;;;;;;;14.20;13.50;;;;;;;9.33;100.00;100121.19;5051349;28;20550;-67
2022/09/19 01:40:54;;;;;;;14.45;13.65;;;;;;;9.17;100.00;100118.63;5045441;28;20025;-68
2022/09/19 01:43:20;;;;;;;14.80;14.00;;;;;;;9.21;100.00;100119.94;5051325;28;20384;-68
2022/09/19 01:45:47;;;;;;;14.75;13.95;;;;;;;9.21;100.00;100118.13;5048916;28;20029;-68
2022/09/19 01:48:16;;;;;;;14.15;13.45;;;;;;;9.17;100.00;100127.41;5051104;28;20552;-68
2022/09/19 01:51:05;;;;;;;14.77;13.98;;;;;;;9.29;100.00;100128.66;5049583;28;20020;-68
2022/09/19 01:53:49;;;;;;;14.45;13.65;;;;;;;9.15;100.00;100132.06;5039664;28;20038;-68
2022/09/19 01:56:45;;;;;;;13.75;13.05;;;;;;;9.11;100.00;100133.41;5048180;28;20108;-68
2022/09/19 01:59:37;;;;;;;14.63;13.82;;;;;;;9.18;100.00;100134.38;5050853;28;20032;-68
2022/09/19 02:02:36;;;;;;;14.70;13.90;;;;;;;9.25;100.00;100142.41;5040312;28;20045;-67
2022/09/19 02:05:08;;;;;;;13.57;12.88;;;;;;;9.27;100.00;100143.06;5039168;28;20032;-68
2022/09/19 02:07:46;;;;;;;13.82;13.13;;;;;;;9.15;100.00;100134.69;5049682;28;20033;-69
2022/09/19 02:10:18;;;;;;;15.23;14.32;;;;;;;9.06;100.00;100135.75;5050497;28;20049;-68
2022/09/19 02:12:43;;;;;;;14.82;14.02;;;;;;;8.98;100.00;100139.28;5050805;28;20025;-68
2022/09/19 02:15:11;;;;;;;14.77;13.98;;;;;;;8.94;100.00;100147.72;5050642;28;20488;-69
2022/09/19 02:17:44;;;;;;;14.45;13.65;;;;;;;8.89;100.00;100156.19;5050894;28;20029;-68
2022/09/19 02:20:26;;;;;;;14.45;13.68;;;;;;;8.91;100.00;100154.19;5044682;28;20025;-69
2022/09/19 02:22:57;;;;;;;14.32;13.52;;;;;;;8.93;100.00;100167.22;5041000;28;20044;-69
2022/09/19 02:25:30;;;;;;;14.10;13.30;;;;;;;8.79;100.00;100164.31;5049798;28;20056;-68
2022/09/19 02:28:03;;;;;;;14.05;13.35;;;;;;;8.99;100.00;100156.78;5048833;28;20041;-68
2022/09/19 02:30:29;;;;;;;14.00;13.30;;;;;;;8.91;100.00;100159.47;5053603;28;20036;-68
2022/09/19 02:32:55;;;;;;;13.93;13.23;;;;;;;8.86;100.00;100157.34;5054276;28;20120;-68
2022/09/19 02:35:36;;;;;;;14.50;13.70;;;;;;;8.96;100.00;100172.16;5054064;28;20388;-68
2022/09/19 02:38:14;;;;;;;15.20;14.25;;;;;;;8.95;100.00;100160.75;5052060;28;20477;-68
2022/09/19 02:40:52;;;;;;;14.10;13.32;;;;;;;8.92;100.00;100165.59;5053894;28;20025;-68
2022/09/19 02:43:29;;;;;;;13.30;12.60;;;;;;;8.98;100.00;100160.44;5054137;28;20021;-69
2022/09/19 02:46:00;;;;;;;14.38;13.57;;;;;;;8.96;100.00;100156.28;5053994;28;20048;-68
2022/09/19 02:48:28;;;;;;;14.20;13.40;;;;;;;8.99;100.00;100154.16;5053852;28;20028;-68
2022/09/19 02:51:01;;;;;;;13.90;13.10;;;;;;;8.81;100.00;100156.19;5064166;28;20100;-69
2022/09/19 02:53:37;;;;;;;14.55;13.75;;;;;;;8.92;100.00;100163.78;5052768;28;20020;-68
2022/09/19 02:56:04;;;;;;;13.50;12.80;;;;;;;8.80;100.00;100175.72;5045703;28;20021;-67
2022/09/19 02:58:42;;;;;;;14.07;13.27;;;;;;;8.79;100.00;100177.53;5052401;28;20075;-68
2022/09/19 03:01:18;;;;;;;13.50;12.80;;;;;;;8.88;100.00;100180.97;5053946;28;20439;-67
2022/09/19 03:06:43;;;;;;;13.90;13.10;;;;;;;8.71;100.00;100188.16;5053636;28;20550;-70
2022/09/19 03:09:13;;;;;;;14.10;13.30;;;;;;;8.72;100.00;100189.78;5053499;28;20107;-69
2022/09/19 03:11:48;;;;;;;13.75;13.02;;;;;;;8.73;100.00;100193.25;5051767;28;20028;-68
2022/09/19 03:14:14;;;;;;;13.95;13.20;;;;;;;8.71;100.00;100192.63;5052087;28;20037;-67
2022/09/19 03:16:42;;;;;;;14.25;13.45;;;;;;;8.63;100.00;100198.75;5051995;28;20031;-68
2022/09/19 03:19:09;;;;;;;14.55;13.75;;;;;;;8.76;100.00;100201.69;5053113;28;20059;-68
2022/09/19 03:21:37;;;;;;;14.32;13.52;;;;;;;8.68;100.00;100200.91;5053177;28;20017;-68
2022/09/19 03:24:05;;;;;;;14.02;13.32;;;;;;;8.64;100.00;100208.34;5051755;28;20021;-68
2022/09/19 03:26:36;;;;;;;13.82;13.13;;;;;;;8.65;100.00;100203.88;5051806;28;20020;-69
2022/09/19 03:29:09;;;;;;;15.95;14.95;;;;;;;8.67;100.00;100199.25;5045754;28;20033;-69
2022/09/19 03:31:34;;;;;;;13.95;13.25;;;;;;;8.63;100.00;100208.50;5053279;28;20028;-68
2022/09/19 03:34:00;;;;;;;14.05;13.27;;;;;;;8.73;100.00;100217.88;5040404;28;20032;-69
2022/09/19 03:36:29;;;;;;;14.07;13.30;;;;;;;8.76;100.00;100222.03;5054399;28;20017;-69
2022/09/19 03:39:01;;;;;;;13.73;13.02;;;;;;;8.74;100.00;100200.19;5053089;28;20027;-69
2022/09/19 03:41:30;;;;;;;13.63;12.93;;;;;;;8.91;100.00;100215.03;5049007;28;20052;-68
2022/09/19 03:44:01;;;;;;;14.20;13.40;;;;;;;8.90;100.00;100218.69;5049969;28;20025;-69
2022/09/19 03:46:30;;;;;;;14.80;13.90;;;;;;;8.94;100.00;100222.63;5041631;28;20537;-67
2022/09/19 03:48:56;;;;;;;14.32;13.52;;;;;;;8.87;100.00;100221.66;5051528;28;20032;-68
2022/09/19 03:51:23;;;;;;;14.00;13.20;;;;;;;8.97;100.00;100227.59;5044912;28;20030;-67
2022/09/19 03:53:48;;;;;;;13.88;13.07;;;;;;;9.04;100.00;100233.84;5043285;28;20439;-69
2022/09/19 03:56:14;;;;;;;13.60;12.90;;;;;;;9.34;100.00;100231.38;5052570;28;20113;-70
2022/09/19 03:58:41;;;;;;;13.80;13.00;;;;;;;10.20;100.00;100225.75;5050352;28;20040;-70
2022/09/19 04:01:07;;;;;;;14.57;13.68;;;;;;;10.79;100.00;100225.84;5052264;28;20108;-71
2022/09/19 04:03:37;;;;;;;13.57;12.80;;;;;;;11.04;100.00;100234.38;5038981;28;20033;-70
2022/09/19 04:06:04;;;;;;;13.90;13.10;;;;;;;10.91;100.00;100228.06;5051251;28;20017;-70
2022/09/19 04:08:30;;;;;;;14.45;13.55;;;;;;;11.66;100.00;100240.16;5041882;28;20396;-66
2022/09/19 04:10:55;;;;;;;13.45;12.73;;;;;;;11.62;100.00;100240.56;5049388;28;20087;-68
2022/09/19 04:13:21;;;;;;;13.25;12.55;;;;;;;11.78;100.00;100251.97;5040203;28;20389;-68
2022/09/19 04:15:48;;;;;;;13.65;12.85;;;;;;;12.51;100.00;100247.28;5046879;28;20031;-68
2022/09/19 04:18:14;;;;;;;12.98;12.27;;;;;;;12.52;100.00;100249.75;5044026;28;20035;-69
2022/09/19 04:20:39;;;;;;;13.90;13.10;;;;;;;12.55;100.00;100246.69;5050679;28;20033;-69
2022/09/19 04:23:05;;;;;;;12.80;12.20;;;;;;;12.42;100.00;100247.44;5058674;28;20017;-69
2022/09/19 04:25:35;;;;;;;14.63;13.75;;;;;;;12.21;100.00;100247.47;5043212;28;20044;-68
2022/09/19 04:28:09;;;;;;;14.27;13.48;;;;;;;12.26;100.00;100255.69;5051584;28;20029;-68
2022/09/19 04:30:36;;;;;;;13.88;13.07;;;;;;;12.49;100.00;100252.81;5039135;28;20048;-68
2022/09/19 04:33:03;;;;;;;14.40;13.60;;;;;;;12.59;100.00;100265.78;5040991;28;20027;-68
2022/09/19 04:35:35;;;;;;;13.38;12.68;;;;;;;13.25;100.00;100264.34;5044849;28;20117;-68
2022/09/19 04:38:06;;;;;;;13.90;13.10;;;;;;;13.91;100.00;100265.56;5033991;28;20503;-69
2022/09/19 04:40:40;;;;;;;13.98;13.20;;;;;;;14.41;100.00;100269.50;5050902;28;20159;-69
2022/09/19 04:43:09;;;;;;;13.38;12.68;;;;;;;17.83;100.00;100282.56;5051588;28;20021;-68
2022/09/19 04:45:35;;;;;;;13.18;12.48;;;;;;;19.54;91.95;100280.63;5046902;28;20057;-70
2022/09/19 04:48:04;;;;;;;12.85;12.23;;;;;;;20.54;78.61;100287.25;5080070;28;20024;-69
2022/09/19 04:50:30;;;;;;;13.48;12.77;;;;;;;20.20;73.31;100289.13;5051493;28;20036;-69
2022/09/19 04:52:57;;;;;;;13.13;12.43;;;;;;;20.45;70.06;100285.22;5050072;28;20466;-68
2022/09/19 04:55:24;;;;;;;12.80;12.20;;;;;;;20.00;73.39;100286.06;5049783;28;20029;-69
2022/09/19 04:57:49;;;;;;;13.43;12.73;;;;;;;20.07;73.07;100284.84;5040300;28;20025;-69
2022/09/19 05:00:15;;;;;;;14.30;13.55;;;;;;;22.58;61.61;100295.00;5037584;28;20036;-69
2022/09/19 05:02:40;;;;;;;13.40;12.70;;;;;;;24.81;48.60;100291.31;5034866;28;20033;-69
2022/09/19 05:05:06;;;;;;;13.48;12.77;;;;;;;25.76;44.69;100302.13;5038385;28;20399;-68
2022/09/19 05:07:35;;;;;;;12.63;12.02;;;;;;;24.25;44.71;100285.94;5039896;28;20075;-69
2022/09/19 05:10:02;;;;;;;12.55;11.95;;;;;;;24.34;45.55;100300.59;5046508;28;20366;-68
2022/09/19 05:12:28;;;;;;;12.68;12.07;;;;;;;24.20;47.64;100304.91;5044977;28;20086;-69
2022/09/19 05:14:55;;;;;;;12.23;11.63;;;;;;;23.46;49.54;100295.25;5050702;28;20029;-69
2022/09/19 05:17:21;;;;;;;12.48;11.88;;;;;;;22.11;52.95;100295.72;5032838;28;20075;-69
2022/09/19 05:19:47;;;;;;;13.82;13.13;;;;;;;21.82;53.44;100299.72;5049356;28;20406;-68
2022/09/19 05:22:12;;;;;;;13.48;12.82;;;;;;;24.46;46.30;100297.63;5036994;28;20028;-69
2022/09/19 05:24:38;;;;;;;12.77;12.18;;;;;;;23.32;47.13;100292.22;5043696;28;20036;-71
2022/09/19 05:27:04;;;;;;;12.70;12.10;;;;;;;21.74;51.57;100299.13;5044003;28;20536;-72
2022/09/19 05:29:36;;;;;;;12.63;12.02;;;;;;;21.11;58.03;100296.97;5049202;28;20056;-71
2022/09/19 05:32:04;;;;;;;12.98;12.38;;;;;;;23.60;48.80;100293.69;5061897;28;20028;-69
2022/09/19 05:34:30;;;;;;;13.27;12.63;;;;;;;23.72;46.81;100293.44;5054247;28;20025;-70
2022/09/19 05:36:56;;;;;;;12.85;12.25;;;;;;;24.23;44.78;100282.66;5050992;28;20029;-70
2022/09/19 05:39:21;;;;;;;12.27;11.68;;;;;;;24.48;44.97;100288.13;5051019;28;20033;-71
2022/09/19 05:41:47;;;;;;;12.75;12.15;;;;;;;22.46;48.51;100292.47;5057477;28;20021;-72
2022/09/19 05:44:16;;;;;;;12.50;11.90;;;;;;;20.95;55.96;100287.84;5058692;28;20074;-70
2022/09/19 05:46:43;;;;;;;13.02;12.40;;;;;;;20.23;62.97;100279.72;5061209;28;20350;-73
2022/09/19 05:49:09;;;;;;;12.68;12.07;;;;;;;20.13;65.65;100283.06;5050505;28;20077;-70
2022/09/19 05:51:35;;;;;;;12.90;12.30;;;;;;;19.52;69.04;100269.25;5048796;28;20111;-70
2022/09/19 05:54:01;;;;;;;13.00;12.40;;;;;;;20.27;66.89;100276.31;5050310;28;20492;-68
2022/09/19 05:56:26;;;;;;;13.30;12.60;;;;;;;20.22;64.81;100278.09;5049299;28;20020;-70
2022/09/19 05:58:53;;;;;;;12.93;12.32;;;;;;;19.63;67.64;100275.69;5058568;28;20081;-70
2022/09/19 06:01:19;;;;;;;13.05;12.45;;;;;;;19.39;68.05;100274.94;5044425;28;20061;-71
2022/09/19 06:03:45;;;;;;;12.95;12.35;;;;;;;19.74;68.16;100274.81;5051093;28;20083;-71
2022/09/19 06:06:18;;;;;;;13.65;12.95;;;;;;;19.82;70.08;100279.00;5068777;28;20467;-72
2022/09/19 06:08:45;;;;;;;13.13;12.43;;;;;;;19.57;71.55;100280.16;5058202;28;20024;-72
2022/09/19 06:11:11;;;;;;;13.65;12.95;;;;;;;19.11;77.36;100286.47;5060846;28;20025;-71
2022/09/19 06:16:21;;;;;;;13.45;12.75;;;;;;;19.79;69.59;100288.38;5036016;28;20467;-71
2022/09/19 06:18:47;;;;;;;13.52;12.82;;;;;;;20.57;65.17;100300.25;5052645;28;20068;-72
2022/09/19 06:21:13;;;;;;;14.98;14.10;;;;;;;21.99;59.39;100300.44;5049332;28;20021;-71
2022/09/19 06:23:42;;;;;;;12.63;12.02;;;;;;;22.12;56.51;100301.94;5040805;28;20272;-69
2022/09/19 06:26:08;;;;;;;12.70;12.10;;;;;;;21.05;60.98;100312.25;5049570;28;20100;-69
2022/09/19 06:28:34;;;;;;;12.60;12.00;;;;;;;20.96;60.84;100302.97;5054190;28;20108;-71
2022/09/19 06:31:04;;;;;;;14.52;13.73;;;;;;;19.99;65.31;100296.03;5028877;28;20769;-70
2022/09/19 06:33:33;;;;;;;13.10;12.40;;;;;;;19.54;70.25;100291.38;5049812;28;20067;-70
2022/09/19 06:36:00;;;;;;;14.85;14.00;;;;;;;19.57;75.78;100300.88;5042606;28;20040;-69
2022/09/19 06:38:31;;;;;;;13.20;12.50;;;;;;;20.48;67.70;100304.41;5050898;28;20087;-69
2022/09/19 06:40:56;;;;;;;13.10;12.40;;;;;;;21.98;58.61;100305.03;5055097;28;20408;-70
2022/09/19 06:43:22;;;;;;;13.20;12.50;;;;;;;21.49;59.13;100298.81;5049692;28;20035;-70
2022/09/19 06:45:47;;;;;;;12.55;11.95;;;;;;;23.51;52.36;100311.50;5041215;28;20037;-71
2022/09/19 06:48:13;;;;;;;12.40;11.80;;;;;;;24.02;50.06;100313.53;5049091;28;20029;-72
2022/09/19 06:50:38;;;;;;;12.85;12.25;;;;;;;24.11;48.27;100320.09;5038101;28;20056;-71
2022/09/19 06:53:04;;;;;;;12.27;11.68;;;;;;;23.80;48.15;100319.22;5052391;28;20408;-71
2022/09/19 06:55:30;;;;;;;13.55;12.85;;;;;;;25.06;45.21;100329.31;5045671;28;20389;-69
2022/09/19 06:57:58;;;;;;;12.65;12.05;;;;;;;25.05;45.39;100333.09;5064708;28;20024;-70
2022/09/19 07:00:25;;;;;;;12.38;11.77;;;;;;;24.33;45.87;100336.94;5046401;28;20020;-71
2022/09/19 07:02:59;;;;;;;12.88;12.27;;;;;;;25.53;42.71;100338.09;5054672;28;20025;-71
2022/09/19 07:05:26;;;;;;;12.90;12.30;;;;;;;26.86;40.02;100341.53;5055050;28;20021;-70
2022/09/19 07:07:52;;;;;;;12.50;11.90;;;;;;;26.85;39.39;100336.38;5054920;28;20025;-70
2022/09/19 07:10:19;;;;;;;12.20;11.60;;;;;;;26.39;38.25;100334.09;5045514;28;20086;-70
2022/09/19 07:13:01;;;;;;;11.90;11.40;;;;;;;25.32;40.23;100326.50;5055763;28;20028;-69
2022/09/19 07:15:35;;;;;;;12.43;11.82;;;;;;;23.71;42.15;100316.19;5054717;28;20037;-70
2022/09/19 07:18:01;;;;;;;12.18;11.60;;;;;;;23.90;40.98;100316.53;5046472;28;20029;-70
2022/09/19 07:20:28;;;;;;;12.65;12.05;;;;;;;24.15;41.26;100316.53;5055660;28;20530;-73
2022/09/19 07:23:13;;;;;;;13.23;12.60;;;;;;;23.81;42.80;100315.44;5052299;28;20039;-70
2022/09/19 07:25:39;;;;;;;12.90;12.30;;;;;;;24.76;41.44;100310.34;5045078;28;20025;-70
2022/09/19 07:28:06;;;;;;;12.65;12.05;;;;;;;25.16;40.57;100308.63;5044381;28;20034;-69
2022/09/19 07:30:34;;;;;;;12.50;11.90;;;;;;;25.85;39.42;100315.94;5053400;28;20056;-70
2022/09/19 07:33:01;;;;;;;12.95;12.35;;;;;;;25.27;38.59;100313.75;5062803;28;20528;-71
2022/09/19 07:35:30;;;;;;;12.70;12.10;;;;;;;25.06;37.50;100314.91;5050477;28;20203;-72
2022/09/19 07:37:56;;;;;;;12.90;12.30;;;;;;;24.63;38.65;100321.75;5031270;28;20083;-72
2022/09/19 07:40:23;;;;;;;12.48;11.88;;;;;;;25.09;37.48;100317.06;5046866;28;20033;-72
2022/09/19 07:42:50;;;;;;;12.70;12.10;;;;;;;24.46;38.22;100325.56;5048937;28;20621;-70
2022/09/19 07:45:17;;;;;;;12.65;12.05;;;;;;;23.43;39.57;100322.88;5046534;28;20047;-72
2022/09/19 07:47:44;;;;;;;12.57;11.98;;;;;;;24.69;39.80;100334.22;5050824;28;20057;-70
2022/09/19 07:50:14;;;;;;;12.50;11.90;;;;;;;24.24;41.47;100335.81;5054230;28;20025;-70
2022/09/19 07:52:41;;;;;;;12.90;12.30;;;;;;;23.91;41.77;100332.50;5046142;28;20043;-71
2022/09/19 07:55:07;;;;;;;12.02;11.48;;;;;;;24.65;40.61;100335.84;5048218;28;20021;-70
2022/09/19 07:57:33;;;;;;;12.38;11.77;;;;;;;23.38;40.61;100334.47;5056759;28;20025;-71
2022/09/19 07:59:59;;;;;;;12.60;12.00;;;;;;;22.79;42.30;100331.94;5046383;28;20040;-70
2022/09/19 08:02:25;;;;;;;12.95;12.35;;;;;;;23.14;41.26;100335.97;5050703;28;20033;-71
2022/09/19 08:04:50;;;;;;;12.90;12.30;;;;;;;22.43;43.34;100346.25;5040885;28;20024;-71
2022/09/19 08:07:17;;;;;;;12.50;11.90;;;;;;;22.29;43.67;100343.16;5046289;28;20013;-70
2022/09/19 08:09:43;;;;;;;13.13;12.48;;;;;;;22.98;43.09;100353.19;5044223;28;20039;-71
2022/09/19 08:12:11;;;;;;;12.45;11.85;;;;;;;23.10;41.94;100346.50;5052435;28;20556;-71
2022/09/19 08:14:37;;;;;;;13.48;12.77;;;;;;;23.04;41.67;100346.72;5038037;28;20029;-71
2022/09/19 08:17:03;;;;;;;13.40;12.70;;;;;;;22.01;43.39;100341.50;5037831;28;20377;-72
2022/09/19 08:19:29;;;;;;;12.98;12.38;;;;;;;21.42;43.15;100334.09;5039395;28;20061;-72
2022/09/19 08:21:54;;;;;;;13.30;12.60;;;;;;;21.96;44.38;100346.84;5042438;28;20116;-73
2022/09/19 08:24:19;;;;;;;12.35;11.75;;;;;;;22.72;43.89;100352.97;5043561;28;20104;-72
2022/09/19 08:26:45;;;;;;;12.88;12.27;;;;;;;21.52;45.16;100341.50;5039056;28;20037;-72
2022/09/19 08:29:10;;;;;;;12.70;12.10;;;;;;;22.03;47.01;100351.00;5038589;28;20044;-70
2022/09/19 08:31:36;;;;;;;14.10;13.38;;;;;;;22.14;45.27;100346.53;5050005;28;20086;-70
2022/09/19 08:34:02;;;;;;;13.18;12.50;;;;;;;22.47;44.52;100345.47;5053809;28;20029;-70
2022/09/19 08:36:28;;;;;;;12.70;12.10;;;;;;;21.71;44.97;100332.00;5069874;28;20112;-71
2022/09/19 08:38:54;;;;;;;13.90;13.20;;;;;;;21.72;47.90;100357.94;5050176;28;20357;-71
2022/09/19 08:41:36;;;;;;;13.07;12.38;;;;;;;20.25;50.75;100351.13;5043249;28;20028;-71
2022/09/19 08:44:05;;;;;;;13.00;12.40;;;;;;;20.27;51.97;100340.09;5045066;28;20104;-71
2022/09/19 08:46:58;;;;;;;13.35;12.65;;;;;;;20.62;51.96;100348.00;5040435;28;20116;-71
2022/09/19 08:49:38;;;;;;;13.32;12.63;;;;;;;21.04;49.99;100339.47;5038716;28;20134;-71
2022/09/19 08:52:25;;;;;;;15.40;14.50;;;;;;;20.12;51.80;100335.28;5031228;28;20033;-72
2022/09/19 08:54:53;;;;;;;13.23;12.52;;;;;;;20.24;51.40;100344.13;5039701;28;20039;-70
2022/09/19 08:57:19;;;;;;;13.77;13.02;;;;;;;20.34;46.98;100344.28;5037459;28;20087;-71
2022/09/19 08:59:48;;;;;;;17.90;16.73;;;;;;;19.76;49.70;100340.00;5059196;28;20032;-72
2022/09/19 09:02:26;;;;;;;13.43;12.73;;;;;;;19.77;47.33;100338.97;5036591;28;20082;-71
2022/09/19 09:04:54;;;;;;;13.23;12.55;;;;;;;19.91;47.01;100335.97;5053416;28;20037;-71
2022/09/19 09:07:33;;;;;;;13.98;13.25;;;;;;;19.96;46.61;100334.19;5040862;28;20025;-71
2022/09/19 09:10:18;;;;;;;13.32;12.63;;;;;;;20.05;47.51;100332.75;5045702;28;20029;-71
2022/09/19 09:12:55;;;;;;;12.88;12.27;;;;;;;19.72;48.55;100322.69;5056981;28;20541;-73
2022/09/19 09:15:31;;;;;;;13.30;12.60;;;;;;;19.12;52.59;100325.75;5037426;28;20318;-73
2022/09/19 09:18:15;;;;;;;13.15;12.45;;;;;;;19.59;52.56;100325.66;5037580;28;20040;-72
2022/09/19 09:20:55;;;;;;;14.25;13.45;;;;;;;19.46;53.75;100329.44;5045581;28;20081;-73
2022/09/19 09:23:34;;;;;;;14.07;13.32;;;;;;;19.59;52.75;100313.03;5042843;28;20033;-72
2022/09/19 09:26:06;;;;;;;14.02;13.25;;;;;;;19.22;51.21;100331.31;5048349;28;20029;-73
2022/09/19 09:28:44;;;;;;;14.15;13.35;;;;;;;20.23;49.09;100320.13;5044629;28;20029;-71
2022/09/19 09:31:24;;;;;;;14.13;13.32;;;;;;;20.17;49.84;100319.22;5046659;28;20487;-70
2022/09/19 09:34:02;;;;;;;13.40;12.70;;;;;;;19.51;52.12;100320.63;5045324;28;20119;-70
2022/09/19 09:36:42;;;;;;;13.70;13.00;;;;;;;19.47;49.71;100323.00;5047209;28;20024;-71
2022/09/19 09:39:49;;;;;;;14.07;13.27;;;;;;;19.82;48.60;100328.25;5050216;28;20044;-70
2022/09/19 09:42:20;;;;;;;13.18;12.48;;;;;;;19.23;49.26;100321.38;5043464;28;20028;-70
2022/09/19 09:45:00;;;;;;;14.48;13.68;;;;;;;20.22;49.13;100319.31;5044100;28;20043;-70
2022/09/19 09:47:48;;;;;;;13.25;12.55;;;;;;;20.55;47.63;100321.22;5058136;28;20056;-67
2022/09/19 09:50:55;;;;;;;14.55;13.75;;;;;;;21.28;44.36;100324.72;5041549;28;20410;-68
2022/09/19 09:53:23;;;;;;;13.07;12.38;;;;;;;20.98;44.65;100323.22;5038918;28;20398;-69
2022/09/19 09:56:16;;;;;;;13.13;12.43;;;;;;;20.09;48.49;100319.59;5054505;28;20068;-70
2022/09/19 09:59:03;;;;;;;14.23;13.43;;;;;;;20.21;47.76;100311.47;5045063;28;20020;-72
2022/09/19 10:04:48;;;;;;;13.88;13.13;;;;;;;20.82;47.67;100315.16;5050301;28;20086;-73
2022/09/19 10:07:24;;;;;;;14.30;13.50;;;;;;;20.77;47.45;100307.00;5049285;28;20503;-75
2022/09/19 10:09:57;;;;;;;13.35;12.65;;;;;;;20.22;47.94;100307.72;5049046;28;20044;-72
2022/09/19 10:12:28;;;;;;;13.77;13.02;;;;;;;20.17;46.82;100321.91;5052230;28;20043;-69
2022/09/19 10:14:59;;;;;;;13.68;12.98;;;;;;;20.32;46.46;100319.47;5048912;28;20030;-69
2022/09/19 10:17:33;;;;;;;15.35;14.45;;;;;;;20.08;48.00;100321.50;5044177;28;20060;-70
2022/09/19 10:20:03;;;;;;;12.60;12.00;;;;;;;20.01;47.86;100318.13;5042873;28;20230;-71
2022/09/19 10:22:29;;;;;;;13.63;12.93;;;;;;;19.79;49.11;100314.47;5052586;28;20037;-69
2022/09/19 10:24:59;;;;;;;13.05;12.40;;;;;;;20.38;48.33;100318.50;5051186;28;20055;-70
2022/09/19 10:27:41;;;;;;;13.20;12.50;;;;;;;19.39;51.69;100323.38;5040337;28;20013;-68
2022/09/19 10:30:26;;;;;;;12.93;12.27;;;;;;;19.39;51.37;100311.75;5058232;28;20033;-70
2022/09/19 10:32:52;;;;;;;13.73;13.02;;;;;;;19.33;51.82;100316.25;5042183;28;20094;-70
2022/09/19 10:35:25;;;;;;;13.50;12.80;;;;;;;18.57;53.18;100320.66;5043839;28;20036;-70
2022/09/19 10:38:15;;;;;;;12.43;11.82;;;;;;;19.30;52.21;100311.31;5051806;28;20028;-71
2022/09/19 10:40:56;;;;;;;12.63;12.02;;;;;;;19.14;54.10;100309.38;5054440;28;20020;-70
2022/09/19 10:43:26;;;;;;;15.38;14.48;;;;;;;18.66;54.40;100307.78;5064314;28;20025;-74
2022/09/19 10:45:53;;;;;;;13.40;12.70;;;;;;;18.86;58.02;100302.03;5064764;28;20063;-73
2022/09/19 10:48:39;;;;;;;12.95;12.32;;;;;;;18.85;57.42;100308.47;5074213;28;20516;-75
2022/09/19 10:51:08;;;;;;;13.10;12.40;;;;;;;18.95;57.69;100293.38;5055843;28;20037;-74
2022/09/19 10:53:35;;;;;;;13.70;13.00;;;;;;;19.39;57.41;100320.69;5055497;28;20080;-73
2022/09/19 10:56:04;;;;;;;13.02;12.32;;;;;;;19.20;57.91;100309.25;5045912;28;20044;-74
2022/09/19 10:58:38;;;;;;;12.40;11.80;;;;;;;20.04;53.22;100304.16;5051171;28;20075;-72
2022/09/19 11:01:05;;;;;;;12.98;12.38;;;;;;;18.90;56.12;100293.25;5048895;28;20044;-71
2022/09/19 11:03:33;;;;;;;13.20;12.50;;;;;;;18.79;58.30;100302.13;5061936;28;20387;-72
2022/09/19 11:06:13;;;;;;;13.43;12.73;;;;;;;19.49;59.09;100312.81;5055726;28;20029;-71
2022/09/19 11:08:46;;;;;;;13.05;12.35;;;;;;;19.91;55.34;100293.72;5039636;28;20496;-70
2022/09/19 11:11:37;;;;;;;14.05;13.25;;;;;;;19.42;53.58;100295.97;5053199;28;20504;-69
2022/09/19 11:14:36;;;;;;;12.73;12.13;;;;;;;19.72;51.90;100293.09;5049255;28;20108;-73
2022/09/19 11:17:02;;;;;;;13.32;12.63;;;;;;;19.81;52.06;100301.59;5046877;28;20057;-72
2022/09/19 11:19:27;;;;;;;12.50;11.90;;;;;;;20.40;49.74;100291.31;5047541;28;20711;-70
2022/09/19 11:22:01;;;;;;;12.75;12.15;;;;;;;19.94;50.39;100297.78;5050959;28;20029;-69
2022/09/19 11:24:38;;;;;;;12.40;11.80;;;;;;;19.67;51.11;100301.06;5046703;28;20037;-69
2022/09/19 11:27:30;;;;;;;12.57;11.98;;;;;;;19.77;51.43;100285.13;5050394;28;20017;-68
2022/09/19 11:30:13;;;;;;;12.38;11.77;;;;;;;20.37;49.06;100286.41;5042573;28;20094;-70
2022/09/19 11:32:39;;;;;;;12.30;11.70;;;;;;;20.59;49.36;100291.91;5048860;28;20497;-69
2022/09/19 11:35:25;;;;;;;13.02;12.38;;;;;;;20.56;48.54;100287.00;5047580;28;20040;-70
2022/09/19 11:38:44;;;;;;;12.57;11.98;;;;;;;19.93;50.04;100294.28;5045836;28;20090;-71
2022/09/19 11:41:28;;;;;;;13.70;13.00;;;;;;;19.81;50.66;100297.03;5026547;28;20536;-71